Time;durP1;ratioP1;P1;durP2;ratioP2;P2;SDS_P1;SDS_P2;PMS_P1;PMS_P2;Temp;Humidity;BMP_temperature;BMP_pressure;BME280_temperature;BME280_humidity;BME280_pressure;Samples;Min_cycle;Max_cycle;Signal;HPM_P1;HPM_P2
2023/01/21 00:01:13;;;;;;;22.00;13.18;;;;;;;;;;5037843;28;20176;-80
2023/01/21 00:03:39;;;;;;;20.15;12.90;;;;;;;;;;5037579;28;20184;-79
2023/01/21 00:06:05;;;;;;;28.42;12.98;;;;;;;;;;5073120;28;20187;-80
2023/01/21 00:08:31;;;;;;;19.10;11.55;;;;;;;;;;5073774;28;20241;-80
2023/01/21 00:11:04;;;;;;;21.95;10.68;;;;;;;;;;5073097;28;20180;-80
2023/01/21 00:13:30;;;;;;;20.17;14.10;;;;;;;;;;5090665;28;20215;-80
2023/01/21 00:15:56;;;;;;;25.98;14.98;;;;;;;;;;5075662;28;20184;-80
2023/01/21 00:18:21;;;;;;;19.03;11.47;;;;;;;;;;5074127;28;20191;-80
2023/01/21 00:20:47;;;;;;;23.63;13.70;;;;;;;;;;5057445;28;20399;-80
2023/01/21 00:23:13;;;;;;;25.08;14.48;;;;;;;;;;5071666;28;20181;-80
2023/01/21 00:25:40;;;;;;;23.10;13.45;;;;;;;;;;5054401;28;20639;-80
2023/01/21 00:28:06;;;;;;;20.08;11.38;;;;;;;;;;5047880;28;20310;-80
2023/01/21 00:30:32;;;;;;;22.20;12.55;;;;;;;;;;5041086;28;20181;-80
2023/01/21 00:32:58;;;;;;;20.40;10.82;;;;;;;;;;5059030;28;20252;-81
2023/01/21 00:35:27;;;;;;;17.73;11.27;;;;;;;;;;5041897;28;20204;-81
2023/01/21 00:37:53;;;;;;;23.65;12.70;;;;;;;;;;5066861;28;20213;-80
2023/01/21 00:40:19;;;;;;;19.42;10.70;;;;;;;;;;5085428;28;20183;-80
2023/01/21 00:42:45;;;;;;;17.92;10.93;;;;;;;;;;5094496;28;20250;-80
2023/01/21 00:45:11;;;;;;;18.10;10.48;;;;;;;;;;5061379;28;20179;-80
2023/01/21 00:47:37;;;;;;;21.60;11.45;;;;;;;;;;5067151;28;20310;-80
2023/01/21 00:50:04;;;;;;;21.85;11.32;;;;;;;;;;5040412;28;20204;-81
2023/01/21 00:52:30;;;;;;;19.20;11.00;;;;;;;;;;5040819;28;20182;-80
2023/01/21 00:54:56;;;;;;;26.35;10.98;;;;;;;;;;5023963;28;20186;-80
2023/01/21 00:57:22;;;;;;;17.75;11.63;;;;;;;;;;5058401;28;20578;-80
2023/01/21 00:59:48;;;;;;;24.17;12.23;;;;;;;;;;5040395;28;20185;-80
2023/01/21 01:02:14;;;;;;;22.20;12.15;;;;;;;;;;5073978;28;20187;-80
2023/01/21 01:04:40;;;;;;;18.27;11.82;;;;;;;;;;5078059;28;20174;-80
2023/01/21 01:07:06;;;;;;;20.15;13.15;;;;;;;;;;5053606;28;20248;-80
2023/01/21 01:09:32;;;;;;;19.30;11.40;;;;;;;;;;5024398;28;20213;-80
2023/01/21 01:11:58;;;;;;;18.83;11.05;;;;;;;;;;5058173;28;20727;-80
2023/01/21 01:14:24;;;;;;;15.23;10.85;;;;;;;;;;5039581;28;20267;-81
2023/01/21 01:16:50;;;;;;;20.20;12.82;;;;;;;;;;5035267;28;20234;-82
2023/01/21 01:19:16;;;;;;;19.80;11.43;;;;;;;;;;5040133;28;20188;-80
2023/01/21 01:21:42;;;;;;;14.90;11.20;;;;;;;;;;5040260;28;20181;-80
2023/01/21 01:24:08;;;;;;;20.77;10.90;;;;;;;;;;5040887;28;20188;-80
2023/01/21 01:26:35;;;;;;;18.15;11.23;;;;;;;;;;5040628;28;20587;-80
2023/01/21 01:29:01;;;;;;;19.35;12.25;;;;;;;;;;5058075;28;20193;-80
2023/01/21 01:31:27;;;;;;;20.38;13.20;;;;;;;;;;5058605;28;20197;-80
2023/01/21 01:33:54;;;;;;;13.82;9.75;;;;;;;;;;5040236;28;20254;-80
2023/01/21 01:36:24;;;;;;;20.00;11.20;;;;;;;;;;5022950;28;20178;-80
2023/01/21 01:38:50;;;;;;;18.52;10.77;;;;;;;;;;5040080;28;20621;-80
2023/01/21 01:41:18;;;;;;;16.77;10.93;;;;;;;;;;5039585;28;20209;-81
2023/01/21 01:43:58;;;;;;;16.92;10.82;;;;;;;;;;5040101;28;20559;-80
2023/01/21 01:46:26;;;;;;;19.02;11.40;;;;;;;;;;5045943;28;20546;-80
2023/01/21 01:48:55;;;;;;;15.40;10.02;;;;;;;;;;5093388;28;20200;-78
2023/01/21 01:51:23;;;;;;;15.43;9.88;;;;;;;;;;5077853;28;20267;-80
2023/01/21 01:53:49;;;;;;;13.52;9.45;;;;;;;;;;5075276;28;20178;-80
2023/01/21 01:56:15;;;;;;;15.57;10.57;;;;;;;;;;5073354;28;20199;-79
2023/01/21 01:58:42;;;;;;;17.45;10.73;;;;;;;;;;5076020;28;20184;-79
2023/01/21 02:01:08;;;;;;;19.20;10.63;;;;;;;;;;5092966;28;20177;-79
2023/01/21 02:03:49;;;;;;;17.27;10.32;;;;;;;;;;5093427;28;20536;-79
2023/01/21 02:06:17;;;;;;;14.40;9.20;;;;;;;;;;5093133;28;20647;-79
2023/01/21 02:08:44;;;;;;;36.03;10.63;;;;;;;;;;5076815;28;20660;-80
2023/01/21 02:11:11;;;;;;;19.58;11.63;;;;;;;;;;5060731;28;20180;-79
2023/01/21 02:13:37;;;;;;;19.92;11.02;;;;;;;;;;5093007;28;20271;-79
2023/01/21 02:16:19;;;;;;;22.55;11.98;;;;;;;;;;5050905;28;20181;-79
2023/01/21 02:18:51;;;;;;;18.65;10.35;;;;;;;;;;5057791;28;20168;-79
2023/01/21 02:21:36;;;;;;;15.60;10.50;;;;;;;;;;5067446;28;20192;-79
2023/01/21 02:24:11;;;;;;;16.80;10.68;;;;;;;;;;5052492;28;20178;-79
2023/01/21 02:26:43;;;;;;;15.80;9.45;;;;;;;;;;5052556;28;20178;-79
2023/01/21 02:29:16;;;;;;;19.10;10.85;;;;;;;;;;5036521;28;20210;-79
2023/01/21 02:31:45;;;;;;;16.20;11.48;;;;;;;;;;5051946;28;20232;-79
2023/01/21 02:34:29;;;;;;;17.35;11.27;;;;;;;;;;5052876;28;20181;-78
2023/01/21 02:36:55;;;;;;;17.30;11.32;;;;;;;;;;5090038;28;20234;-79
2023/01/21 02:39:30;;;;;;;22.30;10.65;;;;;;;;;;5092825;28;20184;-81
2023/01/21 02:42:11;;;;;;;20.02;11.15;;;;;;;;;;5075245;28;20172;-80
2023/01/21 02:44:48;;;;;;;19.17;11.38;;;;;;;;;;5036584;28;20184;-81
2023/01/21 02:47:22;;;;;;;15.32;11.68;;;;;;;;;;5034769;28;20170;-79
2023/01/21 02:50:06;;;;;;;18.70;11.02;;;;;;;;;;5057140;28;20173;-79
2023/01/21 02:52:32;;;;;;;15.55;10.60;;;;;;;;;;5067112;28;20535;-78
2023/01/21 02:54:59;;;;;;;17.23;11.48;;;;;;;;;;5092013;28;20220;-78
2023/01/21 02:57:28;;;;;;;16.95;11.15;;;;;;;;;;5076420;28;20171;-78
2023/01/21 02:59:55;;;;;;;19.25;11.65;;;;;;;;;;5081777;28;20511;-78
2023/01/21 03:02:21;;;;;;;16.30;10.30;;;;;;;;;;5039770;28;20171;-78
2023/01/21 03:04:56;;;;;;;14.75;10.43;;;;;;;;;;5030592;28;20200;-80
2023/01/21 03:07:27;;;;;;;15.85;10.55;;;;;;;;;;5038515;28;20248;-79
2023/01/21 03:09:58;;;;;;;22.15;12.45;;;;;;;;;;5041192;28;20329;-79
2023/01/21 03:12:29;;;;;;;16.67;10.40;;;;;;;;;;5072100;28;20223;-79
2023/01/21 03:17:52;;;;;;;16.23;10.73;;;;;;;;;;5056245;28;20713;-80
2023/01/21 03:20:24;;;;;;;13.70;9.15;;;;;;;;;;5055923;28;20635;-80
2023/01/21 03:22:53;;;;;;;17.08;10.45;;;;;;;;;;5070955;28;20176;-79
2023/01/21 03:25:19;;;;;;;15.85;10.02;;;;;;;;;;5038292;28;20529;-79
2023/01/21 03:27:46;;;;;;;15.63;9.73;;;;;;;;;;5047210;28;20241;-80
2023/01/21 03:30:14;;;;;;;16.35;9.45;;;;;;;;;;5075177;28;20188;-79
2023/01/21 03:32:41;;;;;;;16.98;9.35;;;;;;;;;;5092145;28;20172;-79
2023/01/21 03:35:08;;;;;;;14.60;9.55;;;;;;;;;;5057996;28;20207;-79
2023/01/21 03:37:40;;;;;;;24.50;10.65;;;;;;;;;;5068203;28;20184;-79
2023/01/21 03:40:06;;;;;;;15.55;11.15;;;;;;;;;;5075051;28;20172;-79
2023/01/21 03:42:33;;;;;;;13.40;8.75;;;;;;;;;;5090503;28;20229;-79
2023/01/21 03:44:59;;;;;;;19.75;9.60;;;;;;;;;;5074506;28;20192;-79
2023/01/21 03:47:31;;;;;;;16.35;9.57;;;;;;;;;;5070131;28;20180;-79
2023/01/21 03:49:59;;;;;;;17.00;9.50;;;;;;;;;;5060191;28;20208;-79
2023/01/21 03:52:25;;;;;;;13.48;8.73;;;;;;;;;;5055428;28;20162;-79
2023/01/21 03:54:52;;;;;;;15.77;9.02;;;;;;;;;;5037174;28;20207;-80
2023/01/21 03:57:18;;;;;;;14.43;9.85;;;;;;;;;;5037578;28;20540;-79
2023/01/21 03:59:44;;;;;;;14.93;8.95;;;;;;;;;;5055223;28;20266;-79
2023/01/21 04:02:10;;;;;;;15.15;9.40;;;;;;;;;;5022058;28;20182;-79
2023/01/21 04:04:36;;;;;;;16.55;11.00;;;;;;;;;;5090897;28;20545;-79
2023/01/21 04:07:02;;;;;;;19.70;11.57;;;;;;;;;;5073570;28;20235;-80
2023/01/21 04:09:29;;;;;;;16.02;11.40;;;;;;;;;;5056945;28;20227;-80
2023/01/21 04:11:57;;;;;;;23.45;11.52;;;;;;;;;;5057228;28;20231;-80
2023/01/21 04:14:23;;;;;;;17.40;10.35;;;;;;;;;;5040356;28;20172;-79
2023/01/21 04:16:49;;;;;;;17.08;11.00;;;;;;;;;;5041053;28;20227;-80
2023/01/21 04:19:15;;;;;;;16.50;9.55;;;;;;;;;;5037181;28;20174;-80
2023/01/21 04:21:41;;;;;;;15.35;9.88;;;;;;;;;;5074243;28;20550;-79
2023/01/21 04:24:07;;;;;;;17.50;10.93;;;;;;;;;;5040396;28;20194;-80
2023/01/21 04:26:33;;;;;;;18.65;12.20;;;;;;;;;;5046490;28;20189;-79
2023/01/21 04:28:59;;;;;;;15.73;11.10;;;;;;;;;;5017006;28;20224;-79
2023/01/21 04:31:25;;;;;;;16.10;10.13;;;;;;;;;;5050895;28;20223;-80
2023/01/21 04:33:51;;;;;;;13.75;9.85;;;;;;;;;;5034065;28;20178;-80
2023/01/21 04:36:17;;;;;;;15.25;10.00;;;;;;;;;;5037897;28;20170;-79
2023/01/21 04:38:43;;;;;;;20.38;10.63;;;;;;;;;;5037537;28;20492;-80
2023/01/21 04:41:09;;;;;;;18.83;11.88;;;;;;;;;;5037077;28;20191;-80
2023/01/21 04:43:35;;;;;;;18.95;11.27;;;;;;;;;;5037709;28;20196;-80
2023/01/21 04:46:01;;;;;;;17.52;9.55;;;;;;;;;;5037497;28;20240;-80
2023/01/21 04:48:27;;;;;;;19.40;11.65;;;;;;;;;;5054988;28;20286;-79
2023/01/21 04:50:53;;;;;;;17.10;11.23;;;;;;;;;;5020559;28;20184;-80
2023/01/21 04:53:19;;;;;;;21.05;11.75;;;;;;;;;;5037669;28;20615;-80
2023/01/21 04:55:45;;;;;;;17.60;11.98;;;;;;;;;;5021081;28;20182;-81
2023/01/21 04:58:11;;;;;;;17.15;11.57;;;;;;;;;;5021323;28;20211;-80
2023/01/21 05:00:37;;;;;;;23.50;10.73;;;;;;;;;;5037954;28;20185;-80
2023/01/21 05:03:03;;;;;;;17.90;12.10;;;;;;;;;;5044470;28;20172;-80
2023/01/21 05:05:29;;;;;;;17.80;11.52;;;;;;;;;;5058256;28;20188;-80
2023/01/21 05:07:55;;;;;;;18.88;11.45;;;;;;;;;;5061492;28;20228;-80
2023/01/21 05:10:21;;;;;;;21.35;10.73;;;;;;;;;;5037961;28;20262;-81
2023/01/21 05:12:47;;;;;;;16.23;10.35;;;;;;;;;;5024177;28;20188;-80
2023/01/21 05:15:14;;;;;;;20.77;11.55;;;;;;;;;;5040974;28;20536;-80
2023/01/21 05:17:40;;;;;;;16.45;9.88;;;;;;;;;;5041074;28;20179;-80
2023/01/21 05:20:06;;;;;;;17.77;11.18;;;;;;;;;;5058702;28;20169;-80
2023/01/21 05:22:32;;;;;;;15.38;9.88;;;;;;;;;;5059205;28;20190;-80
2023/01/21 05:24:59;;;;;;;15.07;9.65;;;;;;;;;;5060307;28;20646;-81
2023/01/21 05:27:25;;;;;;;17.77;10.30;;;;;;;;;;5044056;28;20188;-80
2023/01/21 05:29:51;;;;;;;22.48;11.25;;;;;;;;;;5034365;28;20276;-80
2023/01/21 05:32:18;;;;;;;16.95;11.20;;;;;;;;;;5020492;28;20650;-80
2023/01/21 05:34:44;;;;;;;19.90;11.05;;;;;;;;;;5053331;28;20285;-80
2023/01/21 05:37:10;;;;;;;17.98;10.90;;;;;;;;;;5020172;28;20232;-80
2023/01/21 05:39:36;;;;;;;17.80;11.00;;;;;;;;;;5020739;28;20195;-81
2023/01/21 05:42:03;;;;;;;18.83;9.98;;;;;;;;;;5056737;28;20689;-81
2023/01/21 05:44:28;;;;;;;16.88;10.63;;;;;;;;;;5073743;28;20187;-80
2023/01/21 05:46:55;;;;;;;13.68;10.15;;;;;;;;;;5051303;28;20276;-80
2023/01/21 05:49:21;;;;;;;15.52;11.50;;;;;;;;;;5056933;28;20234;-80
2023/01/21 05:51:47;;;;;;;19.48;11.20;;;;;;;;;;5056999;28;20532;-80
2023/01/21 05:54:13;;;;;;;16.90;11.13;;;;;;;;;;5057507;28;20184;-80
2023/01/21 05:56:39;;;;;;;17.05;11.23;;;;;;;;;;5041257;28;20611;-81
2023/01/21 05:59:05;;;;;;;17.30;11.27;;;;;;;;;;5073625;28;20184;-81
2023/01/21 06:01:31;;;;;;;18.40;9.98;;;;;;;;;;5057744;28;20185;-80
2023/01/21 06:03:57;;;;;;;17.05;10.32;;;;;;;;;;5057833;28;20237;-81
2023/01/21 06:06:23;;;;;;;16.35;10.48;;;;;;;;;;5056722;28;20177;-81
2023/01/21 06:08:49;;;;;;;17.90;10.85;;;;;;;;;;5040370;28;20220;-80
2023/01/21 06:11:15;;;;;;;17.65;11.55;;;;;;;;;;5039806;28;20185;-80
2023/01/21 06:13:41;;;;;;;16.70;10.02;;;;;;;;;;5041129;28;20237;-80
2023/01/21 06:16:07;;;;;;;14.32;10.38;;;;;;;;;;5019936;28;20541;-80
2023/01/21 06:18:33;;;;;;;21.80;11.25;;;;;;;;;;5019643;28;20281;-80
2023/01/21 06:21:00;;;;;;;15.35;10.77;;;;;;;;;;5057889;28;20259;-80
2023/01/21 06:23:26;;;;;;;19.88;11.70;;;;;;;;;;5039702;28;20181;-80
2023/01/21 06:25:52;;;;;;;16.70;10.82;;;;;;;;;;5039716;28;20543;-80
2023/01/21 06:28:18;;;;;;;17.02;10.55;;;;;;;;;;5039586;28;20684;-80
2023/01/21 06:30:44;;;;;;;21.85;10.93;;;;;;;;;;5023463;28;20196;-80
2023/01/21 06:33:10;;;;;;;18.83;11.80;;;;;;;;;;5022526;28;20189;-80
2023/01/21 06:35:36;;;;;;;18.10;11.05;;;;;;;;;;5057466;28;20177;-80
2023/01/21 06:38:02;;;;;;;18.40;11.60;;;;;;;;;;5038090;28;20280;-80
2023/01/21 06:40:28;;;;;;;20.10;11.25;;;;;;;;;;5057063;28;20185;-80
2023/01/21 06:42:54;;;;;;;17.77;11.27;;;;;;;;;;5072499;28;20209;-80
2023/01/21 06:45:20;;;;;;;18.13;10.02;;;;;;;;;;5055797;28;20695;-80
2023/01/21 06:47:47;;;;;;;18.67;10.20;;;;;;;;;;5055627;28;22258;-80
2023/01/21 06:50:14;;;;;;;20.27;11.40;;;;;;;;;;5038669;28;20178;-80
2023/01/21 06:52:45;;;;;;;19.73;10.73;;;;;;;;;;5038781;28;20176;-80
2023/01/21 06:55:11;;;;;;;18.80;11.40;;;;;;;;;;5037891;28;20630;-80
2023/01/21 06:57:37;;;;;;;16.50;10.23;;;;;;;;;;5039029;28;20207;-80
2023/01/21 07:00:04;;;;;;;19.75;11.82;;;;;;;;;;5038365;28;20180;-81
2023/01/21 07:02:30;;;;;;;19.52;10.40;;;;;;;;;;5038580;28;20188;-80
2023/01/21 07:04:56;;;;;;;13.98;9.30;;;;;;;;;;5056126;28;20262;-80
2023/01/21 07:07:22;;;;;;;15.05;10.90;;;;;;;;;;5057076;28;20263;-80
2023/01/21 07:09:48;;;;;;;19.48;10.07;;;;;;;;;;5048631;28;20541;-80
2023/01/21 07:12:14;;;;;;;16.80;10.30;;;;;;;;;;5055146;28;20517;-81
2023/01/21 07:14:40;;;;;;;15.35;10.32;;;;;;;;;;5071621;28;20195;-80
2023/01/21 07:17:06;;;;;;;18.90;11.85;;;;;;;;;;5054853;28;20229;-80
2023/01/21 07:19:32;;;;;;;20.83;11.10;;;;;;;;;;5071761;28;20185;-80
2023/01/21 07:21:59;;;;;;;18.20;10.00;;;;;;;;;;5038261;28;20337;-84
2023/01/21 07:24:25;;;;;;;16.38;9.15;;;;;;;;;;5049735;28;20258;-81
2023/01/21 07:26:51;;;;;;;16.40;10.10;;;;;;;;;;5041802;28;20179;-80
2023/01/21 07:29:18;;;;;;;19.70;10.55;;;;;;;;;;5075787;28;20201;-80
2023/01/21 07:31:44;;;;;;;20.13;10.85;;;;;;;;;;5038428;28;20182;-81
2023/01/21 07:34:10;;;;;;;17.73;10.88;;;;;;;;;;5069353;28;20184;-81
2023/01/21 07:36:36;;;;;;;17.83;8.65;;;;;;;;;;5057988;28;20175;-80
2023/01/21 07:39:02;;;;;;;22.55;11.90;;;;;;;;;;5058014;28;20311;-81
2023/01/21 07:41:28;;;;;;;14.75;10.32;;;;;;;;;;5066018;28;20205;-81
2023/01/21 07:43:54;;;;;;;16.40;11.32;;;;;;;;;;5038068;28;20181;-81
2023/01/21 07:46:21;;;;;;;15.57;10.50;;;;;;;;;;5037256;28;20178;-80
2023/01/21 07:48:48;;;;;;;17.80;11.85;;;;;;;;;;5037671;28;20209;-80
2023/01/21 07:51:14;;;;;;;26.08;12.88;;;;;;;;;;5038253;28;20186;-80
2023/01/21 07:53:40;;;;;;;23.35;12.77;;;;;;;;;;5037993;28;20198;-80
2023/01/21 07:56:09;;;;;;;18.75;11.95;;;;;;;;;;5055795;28;20185;-81
2023/01/21 07:58:35;;;;;;;18.67;11.48;;;;;;;;;;5038319;28;20198;-80
2023/01/21 08:01:10;;;;;;;24.02;11.77;;;;;;;;;;5037576;28;20262;-83
2023/01/21 08:03:36;;;;;;;18.88;12.52;;;;;;;;;;5056454;28;20504;-80
2023/01/21 08:06:03;;;;;;;17.45;11.02;;;;;;;;;;5037757;28;20208;-81
2023/01/21 08:08:29;;;;;;;16.98;10.48;;;;;;;;;;5042847;28;20236;-80
2023/01/21 08:10:56;;;;;;;20.40;12.45;;;;;;;;;;5075856;28;20181;-81
2023/01/21 08:13:22;;;;;;;16.08;11.68;;;;;;;;;;5051139;28;20634;-81
2023/01/21 08:15:55;;;;;;;22.25;14.25;;;;;;;;;;5055126;28;20179;-80
2023/01/21 08:18:22;;;;;;;24.45;13.35;;;;;;;;;;5036872;28;20174;-80
2023/01/21 08:20:48;;;;;;;28.23;13.57;;;;;;;;;;5055077;28;20518;-80
2023/01/21 08:23:14;;;;;;;24.23;14.30;;;;;;;;;;5065681;28;20181;-80
2023/01/21 08:25:40;;;;;;;18.50;12.70;;;;;;;;;;5041202;28;20181;-79
2023/01/21 08:28:06;;;;;;;29.02;14.85;;;;;;;;;;5075552;28;20245;-81
2023/01/21 08:30:32;;;;;;;25.20;15.55;;;;;;;;;;5076754;28;20174;-78
2023/01/21 08:32:58;;;;;;;22.60;14.55;;;;;;;;;;5048777;28;20182;-78
2023/01/21 08:35:25;;;;;;;25.48;13.48;;;;;;;;;;5064633;28;20229;-79
2023/01/21 08:37:53;;;;;;;21.95;12.60;;;;;;;;;;5058463;28;20272;-78
2023/01/21 08:40:19;;;;;;;22.80;13.00;;;;;;;;;;5059603;28;20190;-79
2023/01/21 08:42:45;;;;;;;26.75;14.63;;;;;;;;;;5033507;28;20183;-79
2023/01/21 08:45:11;;;;;;;25.95;16.40;;;;;;;;;;5037924;28;20185;-78
2023/01/21 08:47:37;;;;;;;26.02;15.10;;;;;;;;;;5026080;28;20177;-78
2023/01/21 08:50:03;;;;;;;22.20;12.77;;;;;;;;;;5026227;28;20182;-80
2023/01/21 08:52:29;;;;;;;17.38;11.60;;;;;;;;;;5025093;28;20623;-78
2023/01/21 08:54:55;;;;;;;23.13;15.20;;;;;;;;;;5024711;28;20194;-78
2023/01/21 08:57:21;;;;;;;30.77;14.45;;;;;;;;;;5024613;28;20518;-78
2023/01/21 08:59:47;;;;;;;23.20;12.48;;;;;;;;;;5025412;28;20190;-78
2023/01/21 09:02:13;;;;;;;25.60;14.07;;;;;;;;;;5040846;28;20189;-78
2023/01/21 09:04:39;;;;;;;20.83;12.50;;;;;;;;;;5041998;28;20190;-78
2023/01/21 09:07:06;;;;;;;23.40;14.60;;;;;;;;;;5077080;28;20221;-79
2023/01/21 09:09:32;;;;;;;21.48;13.65;;;;;;;;;;5061578;28;20207;-78
2023/01/21 09:11:58;;;;;;;21.42;13.45;;;;;;;;;;5062317;28;20207;-79
2023/01/21 09:14:24;;;;;;;24.58;13.70;;;;;;;;;;5061623;28;20181;-78
2023/01/21 09:16:50;;;;;;;23.48;14.60;;;;;;;;;;5061983;28;20561;-78
2023/01/21 09:19:16;;;;;;;20.60;13.30;;;;;;;;;;5061943;28;20199;-78
2023/01/21 09:21:42;;;;;;;24.70;14.65;;;;;;;;;;5050450;28;20182;-78
2023/01/21 09:24:08;;;;;;;20.95;12.88;;;;;;;;;;5041271;28;20184;-78
2023/01/21 09:26:34;;;;;;;25.13;14.10;;;;;;;;;;5039190;28;20669;-78
2023/01/21 09:29:00;;;;;;;24.67;14.75;;;;;;;;;;5062202;28;20664;-78
2023/01/21 09:31:27;;;;;;;21.75;14.20;;;;;;;;;;5054294;28;20682;-78
2023/01/21 09:33:58;;;;;;;23.48;15.40;;;;;;;;;;5060668;28;20271;-78
2023/01/21 09:36:25;;;;;;;31.10;18.30;;;;;;;;;;5060261;28;20193;-78
2023/01/21 09:38:51;;;;;;;35.92;19.85;;;;;;;;;;5067628;28;20172;-79
2023/01/21 09:41:33;;;;;;;30.58;16.55;;;;;;;;;;5060998;28;20215;-78
2023/01/21 09:44:02;;;;;;;29.02;18.83;;;;;;;;;;5079912;28;20171;-78
2023/01/21 09:46:32;;;;;;;38.22;18.65;;;;;;;;;;5045969;28;20216;-78
2023/01/21 09:48:59;;;;;;;34.10;21.05;;;;;;;;;;5059557;28;20194;-78
2023/01/21 09:51:51;;;;;;;32.15;18.00;;;;;;;;;;5041441;28;20214;-77
2023/01/21 09:54:20;;;;;;;21.33;11.95;;;;;;;;;;5039628;28;20236;-79
2023/01/21 09:56:54;;;;;;;35.75;16.90;;;;;;;;;;5041366;28;20635;-78
2023/01/21 09:59:43;;;;;;;34.80;19.27;;;;;;;;;;5041649;28;20227;-78
2023/01/21 10:02:17;;;;;;;32.03;18.77;;;;;;;;;;5036329;28;20645;-79
2023/01/21 10:04:47;;;;;;;29.75;17.58;;;;;;;;;;5036567;28;20195;-78
2023/01/21 10:07:37;;;;;;;32.60;18.27;;;;;;;;;;5052514;28;20233;-80
2023/01/21 10:10:06;;;;;;;38.38;19.13;;;;;;;;;;5048613;28;20263;-78
2023/01/21 10:12:38;;;;;;;26.80;17.55;;;;;;;;;;5053605;28;20519;-79
2023/01/21 10:15:24;;;;;;;28.35;16.55;;;;;;;;;;5047638;28;20176;-78
2023/01/21 10:18:02;;;;;;;30.80;17.52;;;;;;;;;;5005655;28;20637;-78
2023/01/21 10:20:33;;;;;;;31.92;18.73;;;;;;;;;;5025590;28;20188;-77
2023/01/21 10:23:16;;;;;;;26.15;15.40;;;;;;;;;;5041407;28;20193;-79
2023/01/21 10:25:42;;;;;;;27.38;17.55;;;;;;;;;;5078216;28;20234;-78
2023/01/21 10:28:12;;;;;;;33.00;18.60;;;;;;;;;;5094677;28;20293;-78
2023/01/21 10:30:39;;;;;;;28.33;18.48;;;;;;;;;;5084324;28;20217;-78
2023/01/21 10:33:06;;;;;;;30.98;17.35;;;;;;;;;;5073937;28;20178;-78
2023/01/21 10:35:51;;;;;;;32.95;17.77;;;;;;;;;;5073880;28;20211;-78
2023/01/21 10:38:17;;;;;;;32.42;18.60;;;;;;;;;;5058302;28;20182;-78
2023/01/21 10:40:54;;;;;;;33.38;18.75;;;;;;;;;;5073765;28;20182;-78
2023/01/21 10:43:29;;;;;;;28.23;16.35;;;;;;;;;;5072936;28;20165;-78
2023/01/21 10:45:55;;;;;;;32.20;18.77;;;;;;;;;;5078604;28;20213;-79
2023/01/21 10:48:31;;;;;;;33.17;18.30;;;;;;;;;;5093719;28;20209;-78
2023/01/21 10:51:05;;;;;;;35.90;16.95;;;;;;;;;;5078510;28;20176;-78
2023/01/21 10:53:35;;;;;;;26.38;17.95;;;;;;;;;;5078315;28;20461;-78
2023/01/21 10:56:20;;;;;;;28.50;16.58;;;;;;;;;;5093861;28;20175;-78
2023/01/21 10:58:52;;;;;;;26.05;15.88;;;;;;;;;;5077842;28;20534;-83
2023/01/21 11:01:21;;;;;;;30.17;18.05;;;;;;;;;;5093110;28;20174;-79
2023/01/21 11:03:49;;;;;;;28.40;15.90;;;;;;;;;;5093692;28;20178;-79
2023/01/21 11:06:17;;;;;;;28.77;16.90;;;;;;;;;;5074149;28;20174;-79
2023/01/21 11:08:44;;;;;;;26.92;15.23;;;;;;;;;;5057753;28;20227;-78
2023/01/21 11:11:11;;;;;;;26.95;17.00;;;;;;;;;;5058529;28;20179;-79
2023/01/21 11:13:37;;;;;;;32.60;17.75;;;;;;;;;;5039692;28;20187;-78
2023/01/21 11:16:03;;;;;;;25.92;17.25;;;;;;;;;;5024263;28;20270;-78
2023/01/21 11:18:37;;;;;;;27.73;17.20;;;;;;;;;;5039809;28;20190;-78
2023/01/21 11:21:15;;;;;;;28.70;18.90;;;;;;;;;;5040053;28;20180;-78
2023/01/21 11:23:42;;;;;;;25.63;16.20;;;;;;;;;;5039885;28;20180;-78
2023/01/21 11:26:19;;;;;;;34.05;20.13;;;;;;;;;;5056480;28;20259;-78
2023/01/21 11:28:45;;;;;;;24.95;16.70;;;;;;;;;;5060350;28;20232;-78
2023/01/21 11:31:19;;;;;;;26.27;17.05;;;;;;;;;;5078580;28;20174;-78
2023/01/21 11:33:45;;;;;;;32.65;18.67;;;;;;;;;;5060024;28;20200;-77
2023/01/21 11:36:16;;;;;;;28.55;17.15;;;;;;;;;;5042448;28;20531;-78
2023/01/21 11:38:43;;;;;;;28.30;17.35;;;;;;;;;;5059306;28;20266;-78
2023/01/21 11:41:12;;;;;;;25.88;15.80;;;;;;;;;;5060639;28;20227;-77
2023/01/21 11:43:46;;;;;;;21.90;14.70;;;;;;;;;;5059777;28;20192;-78
2023/01/21 11:46:31;;;;;;;24.27;15.73;;;;;;;;;;5060346;28;20169;-78
2023/01/21 11:49:17;;;;;;;21.70;15.00;;;;;;;;;;5059832;28;20650;-77
2023/01/21 11:51:44;;;;;;;25.30;15.48;;;;;;;;;;5059419;28;20689;-78
2023/01/21 11:54:23;;;;;;;25.15;16.05;;;;;;;;;;5078410;28;20169;-77
2023/01/21 11:56:56;;;;;;;23.38;15.00;;;;;;;;;;5047409;28;20188;-78
2023/01/21 11:59:25;;;;;;;22.67;14.52;;;;;;;;;;5039803;28;20195;-78
2023/01/21 12:02:02;;;;;;;25.48;15.40;;;;;;;;;;5040952;28;20196;-77
2023/01/21 12:04:29;;;;;;;21.40;14.40;;;;;;;;;;5055531;28;20232;-78
2023/01/21 12:06:59;;;;;;;24.50;15.05;;;;;;;;;;5057400;28;20229;-77
2023/01/21 12:09:26;;;;;;;25.27;15.55;;;;;;;;;;5056321;28;20676;-77
2023/01/21 12:12:13;;;;;;;20.85;13.82;;;;;;;;;;5057026;28;20632;-77
2023/01/21 12:14:54;;;;;;;21.02;14.20;;;;;;;;;;5056328;28;20169;-78
2023/01/21 12:17:30;;;;;;;20.05;13.45;;;;;;;;;;5055801;28;20174;-78
2023/01/21 12:20:10;;;;;;;24.65;14.82;;;;;;;;;;5057121;28;20162;-78
2023/01/21 12:22:45;;;;;;;19.48;14.23;;;;;;;;;;5056436;28;20197;-79
2023/01/21 12:25:22;;;;;;;22.20;13.82;;;;;;;;;;5057723;28;20169;-78
2023/01/21 12:28:06;;;;;;;19.77;13.43;;;;;;;;;;5057520;28;20173;-78
2023/01/21 12:30:53;;;;;;;23.52;13.25;;;;;;;;;;5057729;28;20174;-78
2023/01/21 12:33:23;;;;;;;18.40;12.88;;;;;;;;;;5055725;28;20585;-79
2023/01/21 12:35:52;;;;;;;19.02;11.00;;;;;;;;;;5055731;28;20214;-78
2023/01/21 12:38:21;;;;;;;21.75;14.50;;;;;;;;;;5055621;28;20235;-82
2023/01/21 12:41:12;;;;;;;21.50;12.38;;;;;;;;;;5055791;28;20295;-78
2023/01/21 12:43:49;;;;;;;18.05;12.25;;;;;;;;;;5055623;28;20601;-77
2023/01/21 12:46:39;;;;;;;19.30;12.07;;;;;;;;;;5056010;28;20250;-78
2023/01/21 12:49:17;;;;;;;18.05;12.48;;;;;;;;;;5056212;28;20206;-78
2023/01/21 12:51:45;;;;;;;20.02;12.82;;;;;;;;;;5055975;28;20179;-78
2023/01/21 12:54:30;;;;;;;22.98;13.73;;;;;;;;;;5061209;28;20178;-79
2023/01/21 12:57:14;;;;;;;23.85;13.40;;;;;;;;;;5077046;28;20505;-79
2023/01/21 12:59:55;;;;;;;16.98;11.13;;;;;;;;;;5092005;28;20247;-79
2023/01/21 13:02:24;;;;;;;20.17;13.63;;;;;;;;;;5092505;28;20207;-79
2023/01/21 13:04:56;;;;;;;27.85;14.35;;;;;;;;;;5076295;28;20181;-78
2023/01/21 13:07:25;;;;;;;24.65;14.40;;;;;;;;;;5076745;28;20224;-79
2023/01/21 13:10:10;;;;;;;24.08;15.00;;;;;;;;;;5076799;28;20206;-78
2023/01/21 13:12:37;;;;;;;26.27;15.45;;;;;;;;;;5076847;28;20205;-78
2023/01/21 13:15:25;;;;;;;30.02;17.17;;;;;;;;;;5092620;28;20247;-78
2023/01/21 13:17:53;;;;;;;25.60;15.95;;;;;;;;;;5076417;28;20175;-78
2023/01/21 13:20:20;;;;;;;24.30;14.32;;;;;;;;;;5078035;28;20172;-78
2023/01/21 13:22:52;;;;;;;24.95;14.75;;;;;;;;;;5075505;28;20187;-79
2023/01/21 13:25:33;;;;;;;27.45;17.50;;;;;;;;;;5057453;28;20203;-78
2023/01/21 13:28:07;;;;;;;28.40;18.10;;;;;;;;;;5056948;28;20204;-78
2023/01/21 13:30:41;;;;;;;28.60;17.67;;;;;;;;;;5056947;28;20516;-79
2023/01/21 13:33:07;;;;;;;28.85;17.63;;;;;;;;;;5059756;28;20170;-79
2023/01/21 13:35:40;;;;;;;26.67;17.63;;;;;;;;;;5075665;28;20270;-79
2023/01/21 13:38:20;;;;;;;27.17;17.02;;;;;;;;;;5075744;28;20182;-78
2023/01/21 13:41:04;;;;;;;29.25;16.80;;;;;;;;;;5075291;28;20181;-79
2023/01/21 13:44:06;;;;;;;28.73;17.40;;;;;;;;;;5075124;28;20542;-79
2023/01/21 13:46:32;;;;;;;25.70;17.00;;;;;;;;;;4962449;28;20182;-79
2023/01/21 13:49:16;;;;;;;24.00;16.80;;;;;;;;;;5042992;28;20247;-79
2023/01/21 13:51:51;;;;;;;29.17;16.45;;;;;;;;;;5075012;28;20189;-79
2023/01/21 13:54:23;;;;;;;28.27;15.80;;;;;;;;;;5059359;28;20588;-80
2023/01/21 13:56:58;;;;;;;28.33;18.30;;;;;;;;;;5064135;28;20161;-80
2023/01/21 13:59:28;;;;;;;28.45;18.33;;;;;;;;;;5073955;28;20172;-79
2023/01/21 14:02:00;;;;;;;27.05;18.15;;;;;;;;;;5095160;28;20173;-80
2023/01/21 14:04:36;;;;;;;33.42;18.10;;;;;;;;;;5082063;28;20196;-79
2023/01/21 14:07:09;;;;;;;30.42;17.38;;;;;;;;;;5062907;28;20219;-79
2023/01/21 14:09:39;;;;;;;30.55;18.73;;;;;;;;;;5067293;28;20236;-79
2023/01/21 14:12:08;;;;;;;28.73;17.42;;;;;;;;;;5073553;28;20693;-78
2023/01/21 14:14:34;;;;;;;31.60;17.67;;;;;;;;;;5077443;28;20184;-79
2023/01/21 14:17:09;;;;;;;28.85;16.65;;;;;;;;;;5070467;28;20633;-78
2023/01/21 14:19:47;;;;;;;30.00;16.92;;;;;;;;;;5073037;28;20266;-79
2023/01/21 14:22:16;;;;;;;23.80;15.38;;;;;;;;;;5038709;28;20177;-78
2023/01/21 14:24:50;;;;;;;25.88;15.07;;;;;;;;;;5038025;28;20205;-78
2023/01/21 14:27:16;;;;;;;22.90;15.60;;;;;;;;;;5021044;28;20180;-79
2023/01/21 14:29:47;;;;;;;23.02;14.18;;;;;;;;;;5020487;28;20217;-79
2023/01/21 14:32:21;;;;;;;21.23;13.27;;;;;;;;;;5038100;28;20571;-78
2023/01/21 14:34:59;;;;;;;21.65;13.50;;;;;;;;;;5038382;28;20168;-78